createdAt,value
2018-06-03T00:01:24.166Z,58.13
2018-06-03T00:03:57.142Z,58.13
2018-06-03T00:06:29.581Z,57.90
2018-06-03T00:09:01.382Z,57.86
2018-06-03T00:11:31.998Z,57.91
2018-06-03T00:14:04.142Z,58.23
2018-06-03T00:16:36.549Z,58.50
2018-06-03T00:19:11.729Z,59.22
2018-06-03T00:21:49.544Z,58.76
2018-06-03T00:24:20.507Z,58.43
2018-06-03T00:26:51.817Z,58.54
2018-06-03T00:29:22.928Z,58.50
2018-06-03T00:31:54.054Z,58.43
2018-06-03T00:34:27.784Z,58.51
2018-06-03T00:36:59.682Z,58.38
2018-06-03T00:39:30.111Z,58.60
2018-06-03T00:42:08.187Z,58.80
2018-06-03T00:44:40.719Z,58.71
2018-06-03T00:47:13.490Z,58.66
2018-06-03T00:49:47.252Z,58.51
2018-06-03T00:52:18.721Z,58.58
2018-06-03T00:54:52.529Z,58.62
2018-06-03T00:57:25.530Z,58.69
2018-06-03T00:59:58.301Z,58.57
2018-06-03T01:02:31.505Z,58.69
2018-06-03T01:05:07.403Z,58.59
2018-06-03T01:07:54.276Z,58.53
2018-06-03T01:10:25.580Z,58.45
2018-06-03T01:13:05.743Z,58.42
2018-06-03T01:15:47.387Z,58.50
2018-06-03T01:18:20.042Z,58.60
2018-06-03T01:20:51.329Z,58.79
2018-06-03T01:23:22.228Z,58.94
2018-06-03T01:25:53.167Z,59.09
2018-06-03T01:28:24.868Z,59.19
2018-06-03T01:30:56.863Z,59.38
2018-06-03T01:33:28.326Z,59.60
2018-06-03T01:35:59.577Z,59.53
2018-06-03T01:38:31.988Z,59.49
2018-06-03T01:41:03.120Z,59.48
2018-06-03T01:43:38.857Z,59.50
2018-06-03T01:46:18.040Z,59.81
2018-06-03T01:48:49.135Z,59.83
2018-06-03T01:51:20.515Z,60.38
2018-06-03T01:53:51.407Z,60.97
2018-06-03T01:56:21.932Z,61.29
2018-06-03T01:59:03.109Z,61.37
2018-06-03T02:01:33.739Z,61.79
2018-06-03T02:04:07.110Z,61.88
2018-06-03T02:06:45.868Z,62.01
2018-06-03T02:09:21.074Z,61.86
2018-06-03T02:11:52.989Z,61.83
2018-06-03T02:14:31.829Z,62.22
2018-06-03T02:17:04.047Z,62.28
2018-06-03T02:19:50.336Z,62.28
2018-06-03T02:22:22.753Z,63.03
2018-06-03T02:24:56.998Z,63.05
2018-06-03T02:27:31.165Z,63.18
2018-06-03T02:30:18.737Z,63.27
2018-06-03T02:32:50.815Z,63.84
2018-06-03T02:35:23.215Z,63.93
2018-06-03T02:37:56.218Z,63.80
2018-06-03T02:40:28.762Z,63.82
2018-06-03T02:43:11.945Z,64.01
2018-06-03T02:45:43.885Z,64.08
2018-06-03T02:48:14.928Z,64.37
2018-06-03T02:50:49.391Z,64.39
2018-06-03T02:53:20.851Z,64.61
2018-06-03T02:55:54.352Z,65.13
2018-06-03T02:58:24.958Z,65.37
2018-06-03T03:00:57.055Z,65.65
2018-06-03T03:03:33.197Z,65.52
2018-06-03T03:06:03.643Z,65.04
2018-06-03T03:08:34.274Z,64.68
2018-06-03T03:11:08.078Z,64.86
2018-06-03T03:13:39.355Z,64.83
2018-06-03T03:16:10.995Z,65.61
2018-06-03T03:18:41.684Z,65.53
2018-06-03T03:21:13.260Z,65.05
2018-06-03T03:23:43.998Z,65.12
2018-06-03T03:26:15.527Z,65.13
2018-06-03T03:28:46.685Z,65.04
2018-06-03T03:31:23.911Z,65.26
2018-06-03T03:34:03.305Z,65.47
2018-06-03T03:36:34.869Z,65.71
2018-06-03T03:39:09.671Z,65.44
2018-06-03T03:41:41.817Z,65.36
2018-06-03T03:44:12.255Z,65.40
2018-06-03T03:46:42.878Z,65.18
2018-06-03T03:49:13.389Z,65.20
2018-06-03T03:51:47.520Z,65.39
2018-06-03T03:54:21.581Z,65.16
2018-06-03T03:56:52.490Z,65.17
2018-06-03T03:59:24.092Z,64.95
2018-06-03T04:01:58.187Z,64.84
2018-06-03T04:04:33.085Z,64.85
2018-06-03T04:07:04.465Z,64.57
2018-06-03T04:09:36.789Z,64.79
2018-06-03T04:12:08.193Z,64.67
2018-06-03T04:14:38.878Z,64.47
2018-06-03T04:17:09.657Z,64.46
2018-06-03T04:19:42.029Z,65.05
2018-06-03T04:22:12.514Z,65.19
2018-06-03T04:24:46.944Z,64.67
2018-06-03T04:27:21.771Z,64.17
2018-06-03T04:29:58.318Z,64.09
2018-06-03T04:32:29.373Z,63.92
2018-06-03T04:35:06.267Z,63.74
2018-06-03T04:37:36.841Z,63.17
2018-06-03T04:40:08.071Z,63.09
2018-06-03T04:42:38.459Z,62.73
2018-06-03T04:45:14.653Z,62.54
2018-06-03T04:47:47.217Z,62.61
2018-06-03T04:50:18.665Z,62.69
2018-06-03T04:52:49.115Z,62.69
2018-06-03T04:55:23.014Z,62.44
2018-06-03T04:57:53.557Z,61.84
2018-06-03T05:00:25.310Z,60.99
2018-06-03T05:02:55.739Z,60.84
2018-06-03T05:08:04.476Z,60.46
2018-06-03T05:10:34.871Z,60.39
2018-06-03T05:13:06.247Z,60.31
2018-06-03T05:15:37.761Z,60.46
2018-06-03T05:18:10.183Z,60.28
2018-06-03T05:20:49.391Z,60.00
2018-06-03T05:23:20.225Z,60.06
2018-06-03T05:25:50.972Z,59.71
2018-06-03T05:28:23.963Z,59.22
2018-06-03T05:30:55.886Z,59.19
2018-06-03T05:33:27.475Z,59.66
2018-06-03T05:36:01.107Z,60.13
2018-06-03T05:38:34.122Z,59.95
2018-06-03T05:41:04.955Z,59.74
2018-06-03T05:43:39.224Z,59.00
2018-06-03T05:46:17.124Z,59.00
2018-06-03T05:48:49.144Z,58.34
2018-06-03T05:51:25.672Z,59.24
2018-06-03T05:53:56.358Z,59.25
2018-06-03T05:56:27.697Z,58.43
2018-06-03T05:59:04.446Z,58.52
2018-06-03T06:01:36.613Z,58.51
2018-06-03T06:04:08.151Z,57.69
2018-06-03T06:06:40.511Z,56.91
2018-06-03T06:09:13.222Z,57.22
2018-06-03T06:11:45.808Z,56.93
2018-06-03T06:14:20.516Z,56.99
2018-06-03T06:16:52.264Z,56.90
2018-06-03T06:19:23.877Z,57.07
2018-06-03T06:22:10.040Z,56.76
2018-06-03T06:25:02.351Z,55.99
2018-06-03T06:27:51.576Z,56.10
2018-06-03T06:30:30.187Z,55.64
2018-06-03T06:33:01.932Z,55.50
2018-06-03T06:35:40.382Z,54.83
2018-06-03T06:38:14.457Z,54.07
2018-06-03T06:40:49.737Z,52.93
2018-06-03T06:43:20.542Z,52.35
2018-06-03T06:45:52.811Z,52.18
2018-06-03T06:48:24.329Z,51.10
2018-06-03T06:50:58.647Z,50.82
2018-06-03T06:53:30.219Z,50.93
2018-06-03T06:56:04.820Z,50.67
2018-06-03T06:58:39.089Z,50.71
2018-06-03T07:01:11.461Z,49.62
2018-06-03T07:03:44.417Z,48.58
2018-06-03T07:06:16.268Z,48.64
2018-06-03T07:08:47.100Z,48.98
2018-06-03T07:11:19.925Z,49.01
2018-06-03T07:14:00.585Z,49.17
2018-06-03T07:16:37.830Z,49.25
2018-06-03T07:19:12.694Z,49.14
2018-06-03T07:21:49.396Z,49.28
2018-06-03T07:24:24.769Z,49.96
2018-06-03T07:26:59.585Z,50.91
2018-06-03T07:29:32.987Z,51.25
2018-06-03T07:32:06.672Z,53.56
2018-06-03T07:34:45.775Z,54.71
2018-06-03T07:37:21.155Z,54.13
2018-06-03T07:39:55.403Z,53.17
2018-06-03T07:42:31.944Z,52.37
2018-06-03T07:45:05.110Z,51.89
2018-06-03T07:47:38.168Z,52.08
2018-06-03T07:50:11.921Z,51.45
2018-06-03T07:52:45.792Z,50.50
2018-06-03T07:55:16.497Z,49.32
2018-06-03T07:57:54.611Z,48.91
2018-06-03T08:00:37.697Z,47.56
2018-06-03T08:03:08.781Z,48.00
2018-06-03T08:05:40.529Z,47.59
2018-06-03T08:08:10.908Z,46.25
2018-06-03T08:10:52.809Z,43.20
2018-06-03T08:13:35.946Z,40.97
2018-06-03T08:16:09.716Z,41.53
2018-06-03T08:18:42.648Z,42.16
2018-06-03T08:21:30.796Z,43.05
2018-06-03T08:24:12.601Z,42.71
2018-06-03T08:26:44.634Z,42.41
2018-06-03T08:29:15.109Z,42.58
2018-06-03T08:31:50.456Z,42.54
2018-06-03T08:34:21.561Z,43.61
2018-06-03T08:36:54.279Z,44.67
2018-06-03T08:39:25.433Z,44.50
2018-06-03T08:42:00.236Z,45.97
2018-06-03T08:44:31.912Z,46.55
2018-06-03T08:47:03.836Z,47.71
2018-06-03T08:49:45.485Z,47.56
2018-06-03T08:52:19.252Z,47.63
2018-06-03T08:54:50.322Z,47.23
2018-06-03T08:57:21.579Z,47.27
2018-06-03T08:59:52.765Z,47.17
2018-06-03T09:02:24.643Z,47.56
2018-06-03T09:04:57.116Z,47.90
2018-06-03T09:07:29.316Z,48.29
2018-06-03T09:12:39.764Z,48.87
2018-06-03T09:15:25.411Z,49.28
2018-06-03T09:17:58.995Z,49.02
2018-06-03T09:20:32.322Z,48.87
2018-06-03T09:23:05.894Z,48.88
2018-06-03T09:25:40.818Z,48.85
2018-06-03T09:28:12.439Z,49.43
2018-06-03T09:30:47.999Z,49.53
2018-06-03T09:33:20.076Z,49.41
2018-06-03T09:35:54.614Z,49.19
2018-06-03T09:38:26.770Z,48.57
2018-06-03T09:40:59.480Z,48.42
2018-06-03T09:43:32.814Z,49.03
2018-06-03T09:46:05.374Z,49.39
2018-06-03T09:48:38.205Z,48.00
2018-06-03T09:51:11.957Z,47.47
2018-06-03T09:53:45.418Z,46.83
2018-06-03T09:56:18.358Z,46.39
2018-06-03T09:58:50.222Z,46.63
2018-06-03T10:01:23.272Z,46.93
2018-06-03T10:03:55.733Z,46.40
2018-06-03T10:06:28.939Z,45.96
2018-06-03T10:09:06.474Z,45.76
2018-06-03T10:11:39.562Z,45.26
2018-06-03T10:14:15.139Z,43.94
2018-06-03T10:16:48.702Z,43.76
2018-06-03T10:19:19.800Z,42.56
2018-06-03T10:21:52.932Z,42.97
2018-06-03T10:24:24.551Z,43.28
2018-06-03T10:26:57.573Z,42.60
2018-06-03T10:29:32.446Z,41.28
2018-06-03T10:32:04.008Z,39.78
2018-06-03T10:34:34.917Z,39.15
2018-06-03T10:37:17.418Z,38.82
2018-06-03T10:40:11.250Z,37.50
2018-06-03T10:42:43.885Z,37.20
2018-06-03T10:45:24.793Z,38.03
2018-06-03T10:47:58.231Z,37.57
2018-06-03T10:50:30.705Z,36.60
2018-06-03T10:53:03.763Z,37.05
2018-06-03T10:55:37.178Z,36.79
2018-06-03T10:58:08.455Z,36.66
2018-06-03T11:00:41.087Z,36.58
2018-06-03T11:03:12.363Z,36.13
2018-06-03T11:05:43.400Z,36.62
2018-06-03T11:08:15.213Z,36.08
2018-06-03T11:10:49.668Z,34.75
2018-06-03T11:13:24.344Z,34.92
2018-06-03T11:16:08.463Z,35.49
2018-06-03T11:18:39.987Z,36.25
2018-06-03T11:21:12.045Z,34.53
2018-06-03T11:23:42.786Z,34.42
2018-06-03T11:26:14.474Z,33.02
2018-06-03T11:28:45.300Z,32.31
2018-06-03T11:31:15.968Z,32.35
2018-06-03T11:33:48.091Z,31.31
2018-06-03T11:36:19.545Z,31.72
2018-06-03T11:38:50.816Z,31.65
2018-06-03T11:41:27.544Z,30.89
2018-06-03T11:43:59.104Z,31.07
2018-06-03T11:46:31.191Z,30.28
2018-06-03T11:49:02.218Z,31.23
2018-06-03T11:51:32.953Z,31.66
2018-06-03T11:54:06.713Z,33.09
2018-06-03T11:56:49.038Z,33.20
2018-06-03T11:59:30.763Z,33.99
2018-06-03T12:02:02.983Z,34.26
2018-06-03T12:04:44.037Z,34.40
2018-06-03T12:07:26.402Z,34.70
2018-06-03T12:10:21.800Z,35.21
2018-06-03T12:15:57.883Z,36.20
2018-06-03T12:18:51.068Z,36.21
2018-06-03T12:21:27.353Z,36.62
2018-06-03T12:24:07.281Z,36.78
2018-06-03T12:26:50.709Z,37.28
2018-06-03T12:29:25.153Z,37.10
2018-06-03T12:31:56.234Z,37.98
2018-06-03T12:34:28.845Z,38.04
2018-06-03T12:37:00.171Z,38.40
2018-06-03T12:39:31.880Z,38.69
2018-06-03T12:42:06.639Z,38.52
2018-06-03T12:44:39.001Z,38.90
2018-06-03T12:47:11.599Z,39.01
2018-06-03T12:49:46.292Z,38.14
2018-06-03T12:52:17.031Z,38.36
2018-06-03T12:54:47.889Z,39.00
2018-06-03T12:57:20.555Z,39.05
2018-06-03T12:59:54.565Z,38.55
2018-06-03T13:05:18.094Z,37.79
2018-06-03T13:07:53.111Z,36.80
2018-06-03T13:10:29.030Z,37.21
2018-06-03T13:13:04.454Z,37.11
2018-06-03T13:15:37.266Z,36.98
2018-06-03T13:18:08.666Z,36.35
2018-06-03T13:20:40.394Z,35.52
2018-06-03T13:24:19.483Z,35.22
2018-06-03T13:26:50.790Z,35.23
2018-06-03T13:29:26.486Z,35.54
2018-06-03T13:32:00.253Z,36.00
2018-06-03T13:34:40.040Z,35.78
2018-06-03T13:37:10.756Z,36.14
2018-06-03T13:39:44.304Z,36.56
2018-06-03T13:42:18.869Z,37.18
2018-06-03T13:44:52.893Z,37.51
2018-06-03T13:47:27.019Z,37.63
2018-06-03T13:49:59.191Z,38.70
2018-06-03T13:52:30.282Z,37.99
2018-06-03T13:55:01.709Z,36.23
2018-06-03T13:57:33.406Z,37.24
2018-06-03T14:00:17.653Z,37.60
2018-06-03T14:03:02.338Z,37.25
2018-06-03T14:05:34.996Z,36.68
2018-06-03T14:08:06.998Z,36.54
2018-06-03T14:10:41.060Z,36.58
2018-06-03T14:13:15.883Z,36.80
2018-06-03T14:15:59.637Z,37.09
2018-06-03T14:18:34.755Z,37.00
2018-06-03T14:21:06.890Z,37.38
2018-06-03T14:23:40.922Z,36.32
2018-06-03T14:26:17.430Z,36.55
2018-06-03T14:28:49.169Z,36.34
2018-06-03T14:31:20.329Z,37.09
2018-06-03T14:33:52.681Z,36.67
2018-06-03T14:36:28.036Z,36.64
2018-06-03T14:39:01.159Z,36.64
2018-06-03T14:41:34.764Z,37.11
2018-06-03T14:44:08.690Z,36.64
2018-06-03T14:46:41.245Z,36.51
2018-06-03T14:49:12.407Z,36.26
2018-06-03T14:51:43.730Z,37.15
2018-06-03T14:54:15.174Z,37.03
2018-06-03T14:56:56.470Z,37.43
2018-06-03T14:59:32.347Z,37.48
2018-06-03T15:02:07.532Z,36.93
2018-06-03T15:04:39.874Z,36.24
2018-06-03T15:07:15.212Z,36.44
2018-06-03T15:10:03.563Z,37.26
2018-06-03T15:12:40.067Z,36.90
2018-06-03T15:15:17.173Z,36.16
2018-06-03T15:17:57.951Z,35.80
2018-06-03T15:20:29.992Z,36.45
2018-06-03T15:23:17.715Z,37.46
2018-06-03T15:25:48.911Z,35.91
2018-06-03T15:28:20.953Z,35.84
2018-06-03T15:30:55.264Z,36.24
2018-06-03T15:33:28.869Z,35.94
2018-06-03T15:36:04.012Z,36.37
2018-06-03T15:38:37.300Z,36.96
2018-06-03T15:41:10.190Z,37.48
2018-06-03T15:43:41.526Z,38.52
2018-06-03T15:46:16.019Z,38.51
2018-06-03T15:48:49.642Z,39.99
2018-06-03T15:51:26.281Z,39.21
2018-06-03T15:53:57.712Z,39.91
2018-06-03T15:56:38.344Z,39.82
2018-06-03T15:59:16.513Z,40.83
2018-06-03T16:01:56.418Z,40.02
2018-06-03T16:04:27.343Z,40.65
2018-06-03T16:07:10.983Z,40.03
2018-06-03T16:10:16.274Z,39.88
2018-06-03T16:12:46.762Z,40.50
2018-06-03T16:15:19.879Z,40.58
2018-06-03T16:17:50.497Z,40.01
2018-06-03T16:20:21.022Z,40.65
2018-06-03T16:22:55.745Z,39.97
2018-06-03T16:25:27.832Z,40.23
2018-06-03T16:27:59.670Z,39.28
2018-06-03T16:30:35.444Z,39.64
2018-06-03T16:33:11.086Z,40.19
2018-06-03T16:35:44.007Z,40.96
2018-06-03T16:38:18.956Z,39.64
2018-06-03T16:40:51.242Z,39.07
2018-06-03T16:43:28.755Z,39.38
2018-06-03T16:46:00.820Z,38.64
2018-06-03T16:48:32.434Z,39.60
2018-06-03T16:51:02.904Z,40.21
2018-06-03T16:53:36.252Z,40.26
2018-06-03T16:56:08.013Z,39.85
2018-06-03T16:58:39.237Z,40.67
2018-06-03T17:01:11.912Z,39.96
2018-06-03T17:03:42.684Z,40.18
2018-06-03T17:06:13.505Z,40.57
2018-06-03T17:08:44.695Z,40.70
2018-06-03T17:11:18.577Z,41.24
2018-06-03T17:13:51.459Z,41.43
2018-06-03T17:16:29.150Z,41.47
2018-06-03T17:19:02.411Z,42.66
2018-06-03T17:21:33.745Z,41.97
2018-06-03T17:24:07.558Z,41.87
2018-06-03T17:26:42.760Z,41.60
2018-06-03T17:29:14.937Z,41.68
2018-06-03T17:31:46.676Z,41.86
2018-06-03T17:34:17.513Z,41.55
2018-06-03T17:36:49.940Z,41.12
2018-06-03T17:39:20.805Z,41.92
2018-06-03T17:41:51.112Z,41.15
2018-06-03T17:44:22.488Z,40.83
2018-06-03T17:46:53.493Z,41.48
2018-06-03T17:49:26.610Z,41.83
2018-06-03T17:51:59.435Z,41.80
2018-06-03T17:54:39.392Z,41.16
2018-06-03T17:57:12.233Z,41.48
2018-06-03T17:59:50.505Z,41.93
2018-06-03T18:02:22.419Z,41.00
2018-06-03T18:04:55.782Z,41.21
2018-06-03T18:07:26.207Z,42.67
2018-06-03T18:09:56.889Z,41.42
2018-06-03T18:12:27.991Z,41.75
2018-06-03T18:15:08.045Z,41.51
2018-06-03T18:17:39.762Z,41.84
2018-06-03T18:20:10.757Z,42.11
2018-06-03T18:22:41.114Z,43.28
2018-06-03T18:25:12.796Z,42.59
2018-06-03T18:27:50.257Z,43.85
2018-06-03T18:30:24.953Z,43.17
2018-06-03T18:32:56.659Z,43.22
2018-06-03T18:35:29.130Z,43.09
2018-06-03T18:38:04.425Z,43.29
2018-06-03T18:40:37.598Z,42.71
2018-06-03T18:43:10.017Z,43.22
2018-06-03T18:45:57.486Z,44.02
2018-06-03T18:48:35.379Z,43.67
2018-06-03T18:51:14.111Z,44.03
2018-06-03T18:53:51.748Z,44.07
2018-06-03T18:56:24.621Z,45.33
2018-06-03T18:59:01.983Z,44.85
2018-06-03T19:02:05.688Z,45.59
2018-06-03T19:04:50.243Z,45.92
2018-06-03T19:07:33.377Z,45.63
2018-06-03T19:10:05.148Z,46.09
2018-06-03T19:12:39.109Z,46.14
2018-06-03T19:15:14.252Z,45.28
2018-06-03T19:17:53.127Z,45.66
2018-06-03T19:20:24.642Z,45.38
2018-06-03T19:22:57.368Z,45.70
2018-06-03T19:25:37.908Z,45.63
2018-06-03T19:28:10.305Z,45.41
2018-06-03T19:30:41.992Z,46.31
2018-06-03T19:33:16.562Z,45.73
2018-06-03T19:35:49.302Z,46.63
2018-06-03T19:38:24.405Z,46.51
2018-06-03T19:41:02.281Z,46.30
2018-06-03T19:43:38.529Z,46.78
2018-06-03T19:46:17.193Z,47.31
2018-06-03T19:48:53.760Z,47.63
2018-06-03T19:51:44.636Z,47.77
2018-06-03T19:54:19.833Z,48.47
2018-06-03T19:57:03.885Z,48.95
2018-06-03T19:59:35.670Z,48.33
2018-06-03T20:02:12.961Z,48.11
2018-06-03T20:05:09.034Z,48.01
2018-06-03T20:09:20.600Z,47.94
2018-06-03T20:11:56.402Z,48.06
2018-06-03T20:14:28.699Z,48.57
2018-06-03T20:19:40.786Z,48.04
2018-06-03T20:22:13.233Z,47.95
2018-06-03T20:24:57.591Z,49.34
2018-06-03T20:27:32.541Z,49.52
2018-06-03T20:30:09.986Z,49.08
2018-06-03T20:32:49.955Z,49.75
2018-06-03T20:35:32.724Z,49.44
2018-06-03T20:38:05.167Z,49.73
2018-06-03T20:40:38.307Z,49.40
2018-06-03T20:43:15.138Z,49.37
2018-06-03T20:45:49.459Z,49.83
2018-06-03T20:48:23.556Z,50.26
2018-06-03T20:50:55.407Z,50.43
2018-06-03T20:53:28.199Z,49.95
2018-06-03T20:56:03.910Z,50.42
2018-06-03T20:58:36.180Z,50.50
2018-06-03T21:01:07.854Z,50.80
2018-06-03T21:03:43.253Z,50.78
2018-06-03T21:06:16.038Z,51.24
2018-06-03T21:08:46.739Z,51.39
2018-06-03T21:11:18.319Z,51.82
2018-06-03T21:13:57.881Z,51.50
2018-06-03T21:16:45.140Z,52.31
2018-06-03T21:19:16.351Z,51.81
2018-06-03T21:24:33.858Z,52.01
2018-06-03T21:27:05.928Z,53.32
2018-06-03T21:29:37.215Z,53.59
2018-06-03T21:32:09.433Z,53.12
2018-06-03T21:34:44.961Z,53.82
2018-06-03T21:40:43.692Z,53.68
2018-06-03T21:43:20.623Z,52.98
2018-06-03T21:46:12.009Z,53.78
2018-06-03T21:48:47.881Z,53.49
2018-06-03T21:51:20.975Z,53.66
2018-06-03T21:53:59.942Z,54.65
2018-06-03T21:59:40.940Z,53.63
2018-06-03T22:02:15.416Z,53.16
2018-06-03T22:04:48.758Z,54.43
2018-06-03T22:07:24.008Z,53.88
2018-06-03T22:10:01.200Z,53.92
2018-06-03T22:12:34.545Z,54.63
2018-06-03T22:15:13.104Z,55.06
2018-06-03T22:17:47.042Z,54.84
2018-06-03T22:20:22.754Z,54.61
2018-06-03T22:22:53.668Z,55.58
2018-06-03T22:25:24.821Z,55.19
2018-06-03T22:27:55.906Z,55.19
2018-06-03T22:30:26.764Z,55.86
2018-06-03T22:32:57.389Z,56.26
2018-06-03T22:35:27.946Z,56.28
2018-06-03T22:37:58.892Z,56.31
2018-06-03T22:40:32.372Z,55.84
2018-06-03T22:43:03.239Z,55.42
2018-06-03T22:45:34.716Z,55.59
2018-06-03T22:48:08.973Z,55.30
2018-06-03T22:50:39.675Z,55.90
2018-06-03T22:53:10.334Z,55.70
2018-06-03T22:55:42.235Z,55.79
2018-06-03T22:58:14.987Z,56.14
2018-06-03T23:00:47.188Z,56.14
2018-06-03T23:03:19.302Z,56.77
2018-06-03T23:05:52.109Z,55.80
2018-06-03T23:08:23.048Z,56.84
2018-06-03T23:10:54.278Z,56.68
2018-06-03T23:13:24.670Z,57.33
2018-06-03T23:15:57.411Z,57.14
2018-06-03T23:18:27.866Z,56.66
2018-06-03T23:20:59.978Z,56.69
2018-06-03T23:23:30.910Z,57.48
2018-06-03T23:26:01.453Z,57.00
2018-06-03T23:28:32.252Z,57.34
2018-06-03T23:31:08.152Z,56.20
2018-06-03T23:33:38.607Z,56.21
2018-06-03T23:36:09.264Z,56.45
2018-06-03T23:38:39.659Z,56.99
2018-06-03T23:41:10.346Z,56.98
2018-06-03T23:43:41.024Z,57.33
2018-06-03T23:46:12.033Z,56.61
2018-06-03T23:48:43.750Z,57.81
2018-06-03T23:51:14.930Z,57.19
2018-06-03T23:53:45.574Z,57.38
2018-06-03T23:56:16.299Z,57.32
2018-06-03T23:58:47.134Z,57.43
